createdAt,value
2022-10-10T00:01:14.117Z,23.50
2022-10-10T00:03:42.637Z,23.50
2022-10-10T00:06:12.022Z,23.40
2022-10-10T00:08:40.411Z,23.40
2022-10-10T00:11:10.770Z,23.30
2022-10-10T00:13:39.435Z,23.30
2022-10-10T00:16:07.685Z,23.20
2022-10-10T00:18:36.465Z,23.20
2022-10-10T00:21:04.609Z,23.10
2022-10-10T00:23:32.738Z,23.10
2022-10-10T00:26:02.662Z,23.00
2022-10-10T00:28:38.412Z,23.00
2022-10-10T00:31:07.306Z,22.90
2022-10-10T00:33:35.741Z,22.90
2022-10-10T00:36:03.952Z,22.90
2022-10-10T00:38:32.627Z,22.90
2022-10-10T00:41:01.501Z,22.90
2022-10-10T00:43:30.830Z,22.80
2022-10-10T00:46:00.707Z,22.80
2022-10-10T00:48:30.072Z,22.80
2022-10-10T00:51:01.771Z,22.80
2022-10-10T00:53:34.943Z,22.80
2022-10-10T00:56:04.364Z,22.70
2022-10-10T00:58:35.002Z,22.70
2022-10-10T01:01:04.897Z,22.70
2022-10-10T01:03:32.762Z,22.60
2022-10-10T01:06:00.995Z,22.60
2022-10-10T01:08:29.736Z,22.60
2022-10-10T01:11:09.426Z,22.60
2022-10-10T01:13:45.225Z,22.50
2022-10-10T01:16:22.648Z,22.50
2022-10-10T01:19:01.463Z,22.50
2022-10-10T01:21:37.420Z,22.40
2022-10-10T01:24:29.248Z,22.40
2022-10-10T01:27:26.389Z,22.30
2022-10-10T01:30:02.415Z,22.30
2022-10-10T01:32:35.871Z,22.20
2022-10-10T01:35:32.582Z,22.20
2022-10-10T01:38:12.377Z,22.20
2022-10-10T01:40:46.942Z,22.20
2022-10-10T01:43:15.037Z,22.20
2022-10-10T01:45:48.907Z,22.10
2022-10-10T01:48:20.908Z,22.10
2022-10-10T01:51:14.019Z,22.10
2022-10-10T01:53:47.473Z,22.10
2022-10-10T01:56:23.884Z,22.00
2022-10-10T01:59:19.752Z,22.00
2022-10-10T02:01:55.285Z,22.00
2022-10-10T02:04:32.162Z,21.90
2022-10-10T02:07:04.910Z,21.90
2022-10-10T02:09:38.471Z,21.90
2022-10-10T02:12:08.052Z,21.90
2022-10-10T02:14:41.774Z,21.90
2022-10-10T02:17:13.075Z,21.80
2022-10-10T02:19:47.058Z,21.80
2022-10-10T02:22:15.505Z,21.80
2022-10-10T02:24:44.381Z,21.80
2022-10-10T02:27:16.781Z,21.80
2022-10-10T02:29:46.296Z,21.80
2022-10-10T02:32:21.541Z,21.70
2022-10-10T02:34:52.695Z,21.70
2022-10-10T02:37:21.567Z,21.70
2022-10-10T02:39:54.887Z,21.60
2022-10-10T02:42:24.593Z,21.70
2022-10-10T02:44:53.143Z,21.60
2022-10-10T02:47:22.825Z,21.60
2022-10-10T02:49:53.080Z,21.60
2022-10-10T02:52:21.301Z,21.60
2022-10-10T02:54:49.525Z,21.60
2022-10-10T02:57:17.631Z,21.50
2022-10-10T02:59:45.665Z,21.50
2022-10-10T03:02:13.754Z,21.50
2022-10-10T03:04:44.798Z,21.50
2022-10-10T03:07:13.056Z,21.40
2022-10-10T03:09:41.277Z,21.40
2022-10-10T03:12:09.460Z,21.40
2022-10-10T03:14:37.610Z,21.40
2022-10-10T03:17:05.695Z,21.40
2022-10-10T03:19:33.765Z,21.40
2022-10-10T03:22:03.225Z,21.40
2022-10-10T03:24:31.275Z,21.30
2022-10-10T03:26:59.373Z,21.30
2022-10-10T03:29:27.532Z,21.30
2022-10-10T03:31:55.605Z,21.40
2022-10-10T03:34:23.665Z,21.40
2022-10-10T03:36:51.754Z,21.40
2022-10-10T03:39:21.179Z,21.30
2022-10-10T03:41:50.388Z,21.30
2022-10-10T03:44:19.063Z,21.20
2022-10-10T03:46:47.169Z,21.20
2022-10-10T03:49:15.383Z,21.20
2022-10-10T03:51:43.439Z,21.10
2022-10-10T03:54:11.581Z,21.10
2022-10-10T03:56:40.982Z,21.10
2022-10-10T03:59:09.071Z,21.10
2022-10-10T04:01:37.188Z,21.10
2022-10-10T04:04:06.158Z,21.10
2022-10-10T04:06:34.250Z,21.00
2022-10-10T04:09:02.603Z,21.10
2022-10-10T04:11:30.848Z,21.00
2022-10-10T04:14:00.328Z,21.00
2022-10-10T04:16:28.432Z,21.00
2022-10-10T04:18:56.536Z,20.90
2022-10-10T04:21:24.592Z,20.90
2022-10-10T04:23:52.656Z,20.90
2022-10-10T04:26:20.705Z,20.90
2022-10-10T04:28:48.784Z,20.90
2022-10-10T04:31:18.283Z,20.90
2022-10-10T04:33:46.352Z,20.90
2022-10-10T04:36:14.492Z,20.90
2022-10-10T04:38:43.341Z,20.90
2022-10-10T04:41:11.676Z,20.90
2022-10-10T04:43:39.775Z,20.80
2022-10-10T04:46:07.859Z,20.80
2022-10-10T04:48:38.557Z,20.80
2022-10-10T04:51:06.982Z,20.80
2022-10-10T04:53:35.085Z,20.80
2022-10-10T04:56:03.344Z,20.70
2022-10-10T04:58:31.563Z,20.70
2022-10-10T05:00:59.625Z,20.70
2022-10-10T05:03:27.848Z,20.60
2022-10-10T05:05:57.373Z,20.70
2022-10-10T05:08:25.557Z,20.80
2022-10-10T05:10:54.446Z,20.90
2022-10-10T05:13:22.543Z,20.80
2022-10-10T05:15:53.025Z,20.80
2022-10-10T05:18:21.525Z,20.80
2022-10-10T05:20:49.983Z,20.60
2022-10-10T05:23:19.435Z,20.50
2022-10-10T05:25:50.045Z,20.40
2022-10-10T05:28:18.334Z,20.30
2022-10-10T05:30:46.447Z,20.20
2022-10-10T05:33:14.509Z,20.10
2022-10-10T05:35:42.599Z,20.10
2022-10-10T05:38:10.805Z,20.10
2022-10-10T05:40:42.041Z,20.00
2022-10-10T05:43:10.646Z,20.10
2022-10-10T05:45:38.947Z,20.10
2022-10-10T05:48:08.249Z,20.10
2022-10-10T05:50:42.647Z,20.00
2022-10-10T05:53:10.738Z,20.00
2022-10-10T05:55:38.800Z,20.00
2022-10-10T05:58:08.512Z,20.10
2022-10-10T06:00:36.681Z,20.00
2022-10-10T06:03:04.888Z,20.00
2022-10-10T06:05:32.952Z,20.00
2022-10-10T06:08:07.892Z,20.00
2022-10-10T06:10:37.979Z,20.00
2022-10-10T06:13:07.507Z,19.90
2022-10-10T06:15:35.672Z,19.90
2022-10-10T06:18:04.064Z,20.00
2022-10-10T06:20:34.759Z,20.00
2022-10-10T06:23:03.101Z,20.00
2022-10-10T06:25:43.444Z,20.00
2022-10-10T06:28:13.371Z,20.00
2022-10-10T06:30:42.381Z,20.10
2022-10-10T06:33:10.791Z,20.10
2022-10-10T06:35:42.570Z,20.10
2022-10-10T06:38:11.144Z,20.10
2022-10-10T06:40:39.322Z,20.10
2022-10-10T06:43:11.436Z,20.10
2022-10-10T06:45:43.017Z,20.20
2022-10-10T06:48:12.262Z,20.20
2022-10-10T06:50:40.317Z,20.20
2022-10-10T06:53:08.610Z,20.20
2022-10-10T06:55:36.754Z,20.30
2022-10-10T06:58:05.131Z,20.40
2022-10-10T07:00:33.273Z,20.50
2022-10-10T07:03:02.761Z,20.80
2022-10-10T07:05:30.851Z,20.90
2022-10-10T07:07:58.914Z,21.10
2022-10-10T07:10:27.056Z,21.20
2022-10-10T07:12:55.247Z,21.30
2022-10-10T07:15:23.532Z,21.30
2022-10-10T07:17:58.657Z,21.30
2022-10-10T07:20:28.689Z,21.30
2022-10-10T07:22:56.655Z,21.40
2022-10-10T07:25:24.808Z,21.50
2022-10-10T07:27:52.957Z,21.60
2022-10-10T07:30:21.546Z,21.80
2022-10-10T07:32:49.885Z,21.90
2022-10-10T07:35:18.418Z,22.00
2022-10-10T07:37:47.845Z,22.10
2022-10-10T07:40:16.127Z,22.00
2022-10-10T07:42:44.140Z,21.80
2022-10-10T07:45:12.841Z,21.60
2022-10-10T07:47:40.931Z,21.50
2022-10-10T07:50:10.500Z,21.40
2022-10-10T07:52:39.017Z,21.30
2022-10-10T07:55:09.729Z,21.30
2022-10-10T07:57:38.084Z,21.30
2022-10-10T08:00:11.428Z,21.30
2022-10-10T08:02:39.487Z,21.50
2022-10-10T08:05:08.544Z,21.60
2022-10-10T08:07:37.020Z,21.70
2022-10-10T08:10:05.489Z,21.80
2022-10-10T08:12:34.906Z,21.90
2022-10-10T08:15:03.069Z,22.20
2022-10-10T08:17:31.595Z,22.30
2022-10-10T08:19:59.705Z,22.40
2022-10-10T08:22:27.764Z,22.30
2022-10-10T08:24:55.841Z,22.20
2022-10-10T08:27:23.912Z,22.40
2022-10-10T08:29:53.458Z,22.50
2022-10-10T08:32:21.507Z,22.60
2022-10-10T08:34:49.573Z,22.80
2022-10-10T08:37:17.634Z,22.80
2022-10-10T08:39:45.708Z,22.90
2022-10-10T08:42:18.134Z,22.90
2022-10-10T08:44:50.715Z,23.00
2022-10-10T08:47:23.760Z,23.10
2022-10-10T08:49:56.359Z,23.10
2022-10-10T08:52:32.698Z,23.20
2022-10-10T08:55:03.316Z,23.40
2022-10-10T08:57:34.959Z,23.50
2022-10-10T09:00:07.655Z,23.50
2022-10-10T09:03:00.949Z,23.60
2022-10-10T09:05:45.976Z,23.60
2022-10-10T09:08:27.135Z,23.60
2022-10-10T09:10:59.357Z,23.70
2022-10-10T09:13:34.681Z,23.70
2022-10-10T09:16:07.228Z,23.70
2022-10-10T09:18:48.737Z,23.80
2022-10-10T09:21:19.504Z,23.80
2022-10-10T09:23:54.360Z,23.80
2022-10-10T09:26:26.015Z,23.80
2022-10-10T09:28:58.812Z,23.90
2022-10-10T09:31:34.355Z,23.90
2022-10-10T09:34:10.096Z,23.90
2022-10-10T09:36:39.234Z,24.00
2022-10-10T09:39:18.196Z,24.00
2022-10-10T09:41:52.037Z,24.10
2022-10-10T09:44:22.153Z,24.20
2022-10-10T09:46:50.326Z,24.30
2022-10-10T09:49:21.177Z,24.40
2022-10-10T09:51:50.546Z,24.50
2022-10-10T09:54:20.681Z,24.70
2022-10-10T09:56:54.521Z,24.80
2022-10-10T09:59:42.284Z,24.90
2022-10-10T10:02:20.101Z,25.10
2022-10-10T10:04:50.722Z,25.00
2022-10-10T10:07:22.648Z,25.00
2022-10-10T10:09:52.110Z,24.90
2022-10-10T10:12:23.815Z,25.10
2022-10-10T10:14:53.486Z,25.30
2022-10-10T10:17:24.374Z,25.50
2022-10-10T10:19:54.003Z,25.50
2022-10-10T10:22:34.543Z,25.50
2022-10-10T10:25:32.661Z,25.70
2022-10-10T10:28:20.252Z,25.80
2022-10-10T10:30:49.379Z,26.00
2022-10-10T10:33:32.970Z,26.10
2022-10-10T10:36:10.788Z,26.20
2022-10-10T10:38:45.758Z,26.40
2022-10-10T10:41:20.776Z,26.50
2022-10-10T10:44:17.960Z,26.70
2022-10-10T10:46:56.575Z,26.90
2022-10-10T10:49:30.710Z,27.00
2022-10-10T10:52:20.108Z,27.20
2022-10-10T10:55:04.591Z,27.30
2022-10-10T10:58:04.739Z,27.50
2022-10-10T11:01:28.756Z,27.60
2022-10-10T11:05:16.313Z,27.70
2022-10-10T11:07:13.681Z,27.90
2022-10-10T11:09:50.013Z,28.00
2022-10-10T11:12:30.476Z,28.20
2022-10-10T11:15:00.392Z,28.20
2022-10-10T11:17:37.328Z,28.30
2022-10-10T11:20:13.669Z,28.30
2022-10-10T11:22:47.257Z,29.40
2022-10-10T11:25:24.297Z,31.50
2022-10-10T11:27:56.917Z,32.50
2022-10-10T11:30:26.291Z,32.80
2022-10-10T11:33:00.639Z,33.40
2022-10-10T11:35:36.893Z,34.00
2022-10-10T11:38:12.900Z,34.20
2022-10-10T11:40:50.843Z,34.10
2022-10-10T11:43:26.654Z,33.70
2022-10-10T11:46:03.175Z,33.90
2022-10-10T11:48:40.551Z,34.20
2022-10-10T11:51:20.936Z,34.90
2022-10-10T11:53:52.268Z,35.10
2022-10-10T11:56:28.903Z,35.00
2022-10-10T11:59:03.032Z,35.20
2022-10-10T12:01:34.931Z,35.50
2022-10-10T12:04:03.122Z,35.30
2022-10-10T12:06:38.137Z,35.10
2022-10-10T12:09:11.073Z,35.10
2022-10-10T12:11:44.396Z,34.80
2022-10-10T12:14:18.208Z,34.20
2022-10-10T12:16:47.447Z,33.50
2022-10-10T12:19:19.578Z,32.80
2022-10-10T12:21:57.581Z,32.40
2022-10-10T12:24:27.169Z,32.30
2022-10-10T12:27:42.399Z,32.20
2022-10-10T12:30:22.527Z,32.60
2022-10-10T12:32:54.189Z,32.50
2022-10-10T12:35:39.941Z,32.70
2022-10-10T12:38:18.141Z,33.00
2022-10-10T12:41:13.825Z,33.00
2022-10-10T12:43:59.923Z,32.90
2022-10-10T12:46:30.336Z,32.70
2022-10-10T12:49:18.766Z,32.70
2022-10-10T12:52:01.062Z,32.70
2022-10-10T12:54:34.565Z,33.10
2022-10-10T12:57:14.005Z,33.40
2022-10-10T12:59:43.756Z,33.40
2022-10-10T13:02:18.299Z,32.70
2022-10-10T13:04:48.860Z,32.90
2022-10-10T13:07:19.093Z,33.50
2022-10-10T13:09:49.927Z,33.90
2022-10-10T13:12:28.894Z,34.20
2022-10-10T13:14:58.816Z,34.60
2022-10-10T13:17:29.318Z,35.10
2022-10-10T13:19:59.950Z,35.40
2022-10-10T13:22:29.708Z,35.40
2022-10-10T13:24:57.926Z,35.40
2022-10-10T13:27:28.195Z,35.50
2022-10-10T13:29:58.340Z,35.70
2022-10-10T13:32:28.516Z,35.60
2022-10-10T13:34:59.854Z,35.10
2022-10-10T13:37:28.512Z,34.70
2022-10-10T13:39:57.152Z,35.10
2022-10-10T13:42:32.178Z,35.40
2022-10-10T13:45:03.586Z,35.70
2022-10-10T13:47:51.772Z,35.80
2022-10-10T13:50:27.105Z,35.70
2022-10-10T13:53:24.225Z,35.40
2022-10-10T13:55:58.902Z,35.30
2022-10-10T13:58:27.790Z,35.70
2022-10-10T14:00:59.295Z,36.40
2022-10-10T14:03:28.208Z,36.50
2022-10-10T14:05:56.485Z,36.10
2022-10-10T14:08:29.948Z,35.70
2022-10-10T14:11:01.408Z,35.20
2022-10-10T14:13:31.577Z,34.50
2022-10-10T14:16:14.062Z,34.10
2022-10-10T14:18:42.146Z,34.50
2022-10-10T14:21:10.194Z,34.30
2022-10-10T14:23:38.704Z,33.80
2022-10-10T14:26:11.180Z,33.30
2022-10-10T14:28:40.964Z,32.90
2022-10-10T14:31:09.300Z,32.50
2022-10-10T14:33:39.183Z,32.20
2022-10-10T14:36:07.728Z,32.00
2022-10-10T14:38:35.792Z,32.40
2022-10-10T14:41:05.399Z,32.80
2022-10-10T14:43:33.797Z,33.20
2022-10-10T14:46:02.993Z,33.60
2022-10-10T14:48:31.067Z,33.90
2022-10-10T14:51:01.062Z,34.20
2022-10-10T14:54:10.747Z,34.80
2022-10-10T14:57:06.858Z,35.20
2022-10-10T14:59:48.476Z,35.30
2022-10-10T15:02:13.992Z,34.90
2022-10-10T15:04:42.117Z,34.10
2022-10-10T15:07:14.626Z,33.60
2022-10-10T15:10:02.665Z,33.20
2022-10-10T15:12:31.753Z,33.00
2022-10-10T15:14:59.792Z,32.70
2022-10-10T15:17:29.681Z,32.50
2022-10-10T15:19:57.824Z,32.40
2022-10-10T15:22:27.622Z,32.20
2022-10-10T15:24:55.667Z,32.10
2022-10-10T15:27:23.741Z,31.90
2022-10-10T15:29:51.838Z,31.70
2022-10-10T15:32:19.903Z,31.50
2022-10-10T15:34:49.184Z,31.40
2022-10-10T15:37:17.370Z,31.10
2022-10-10T15:39:46.909Z,30.80
2022-10-10T15:42:22.180Z,30.50
2022-10-10T15:44:51.749Z,30.40
2022-10-10T15:47:21.122Z,30.20
2022-10-10T15:49:49.437Z,30.10
2022-10-10T15:52:18.081Z,30.00
2022-10-10T15:54:49.539Z,30.00
2022-10-10T15:57:19.043Z,29.90
2022-10-10T15:59:47.626Z,29.80
2022-10-10T16:02:16.286Z,29.60
2022-10-10T16:04:45.095Z,29.50
2022-10-10T16:07:28.138Z,29.40
2022-10-10T16:10:01.210Z,29.30
2022-10-10T16:12:29.438Z,29.20
2022-10-10T16:14:57.518Z,29.20
2022-10-10T16:17:25.553Z,29.10
2022-10-10T16:19:53.643Z,28.90
2022-10-10T16:22:21.713Z,28.90
2022-10-10T16:24:58.622Z,28.80
2022-10-10T16:27:39.939Z,28.70
2022-10-10T16:30:09.528Z,28.60
2022-10-10T16:32:42.118Z,28.60
2022-10-10T16:35:11.468Z,28.50
2022-10-10T16:37:40.224Z,28.40
2022-10-10T16:40:09.241Z,28.40
2022-10-10T16:42:37.358Z,28.30
2022-10-10T16:45:07.954Z,28.20
2022-10-10T16:47:36.340Z,28.00
2022-10-10T16:50:06.458Z,28.00
2022-10-10T16:52:37.996Z,27.90
2022-10-10T16:55:07.794Z,27.90
2022-10-10T16:57:35.998Z,27.80
2022-10-10T17:00:04.703Z,27.80
2022-10-10T17:02:34.495Z,27.70
2022-10-10T17:05:02.624Z,27.60
2022-10-10T17:07:30.706Z,27.50
2022-10-10T17:09:58.787Z,27.50
2022-10-10T17:12:26.909Z,27.50
2022-10-10T17:14:54.995Z,27.40
2022-10-10T17:17:23.124Z,27.30
2022-10-10T17:19:53.085Z,27.30
2022-10-10T17:22:21.189Z,27.20
2022-10-10T17:24:49.510Z,27.20
2022-10-10T17:27:17.552Z,27.20
2022-10-10T17:29:45.695Z,27.20
2022-10-10T17:32:13.784Z,27.10
2022-10-10T17:34:41.844Z,27.10
2022-10-10T17:37:11.551Z,27.00
2022-10-10T17:39:39.946Z,27.00
2022-10-10T17:42:08.096Z,26.90
2022-10-10T17:44:43.229Z,26.90
2022-10-10T17:47:15.305Z,26.80
2022-10-10T17:49:46.525Z,26.80
2022-10-10T17:52:20.895Z,26.70
2022-10-10T17:54:49.577Z,26.70
2022-10-10T17:57:18.055Z,26.60
2022-10-10T17:59:46.395Z,26.60
2022-10-10T18:02:17.168Z,26.60
2022-10-10T18:04:45.541Z,26.60
2022-10-10T18:07:15.640Z,26.50
2022-10-10T18:09:43.885Z,26.40
2022-10-10T18:12:12.757Z,26.30
2022-10-10T18:14:40.814Z,26.20
2022-10-10T18:17:08.903Z,26.10
2022-10-10T18:19:37.064Z,26.10
2022-10-10T18:22:05.598Z,26.10
2022-10-10T18:24:35.104Z,26.10
2022-10-10T18:27:03.480Z,25.20
2022-10-10T18:29:31.618Z,24.60
2022-10-10T18:31:59.750Z,24.40
2022-10-10T18:34:27.840Z,24.30
2022-10-10T18:36:58.952Z,24.30
2022-10-10T18:39:32.197Z,24.30
2022-10-10T18:42:02.624Z,24.40
2022-10-10T18:44:30.737Z,24.40
2022-10-10T18:46:58.932Z,24.40
2022-10-10T18:49:27.669Z,24.40
2022-10-10T18:51:56.174Z,24.40
2022-10-10T18:54:27.035Z,24.40
2022-10-10T18:56:55.137Z,24.50
2022-10-10T18:59:25.931Z,24.50
2022-10-10T19:01:54.244Z,24.50
2022-10-10T19:04:22.675Z,24.50
2022-10-10T19:06:56.777Z,24.50
2022-10-10T19:09:26.830Z,24.50
2022-10-10T19:11:55.220Z,24.40
2022-10-10T19:14:24.787Z,24.50
2022-10-10T19:16:52.884Z,24.50
2022-10-10T19:19:21.527Z,24.50
2022-10-10T19:21:50.068Z,24.50
2022-10-10T19:24:21.297Z,24.50
2022-10-10T19:26:55.703Z,24.50
2022-10-10T19:29:26.516Z,24.90
2022-10-10T19:31:54.996Z,25.30
2022-10-10T19:34:23.439Z,25.20
2022-10-10T19:36:51.549Z,24.60
2022-10-10T19:39:19.600Z,24.20
2022-10-10T19:41:47.985Z,23.90
2022-10-10T19:44:16.019Z,23.70
2022-10-10T19:46:46.023Z,23.50
2022-10-10T19:49:14.120Z,23.40
2022-10-10T19:51:42.248Z,23.40
2022-10-10T19:54:10.466Z,23.50
2022-10-10T19:56:38.555Z,23.60
2022-10-10T19:59:06.757Z,23.70
2022-10-10T20:01:35.368Z,23.70
2022-10-10T20:04:05.904Z,23.80
2022-10-10T20:06:35.452Z,23.80
2022-10-10T20:09:07.119Z,23.90
2022-10-10T20:11:38.639Z,23.90
2022-10-10T20:14:06.757Z,24.00
2022-10-10T20:16:36.882Z,24.00
2022-10-10T20:19:06.388Z,24.00
2022-10-10T20:21:35.578Z,24.00
2022-10-10T20:24:06.029Z,24.00
2022-10-10T20:26:34.573Z,23.90
2022-10-10T20:29:03.495Z,23.90
2022-10-10T20:31:34.856Z,23.90
2022-10-10T20:34:04.013Z,23.90
2022-10-10T20:36:34.960Z,23.90
2022-10-10T20:39:05.504Z,23.90
2022-10-10T20:41:35.580Z,23.80
2022-10-10T20:44:05.093Z,23.70
2022-10-10T20:46:35.094Z,23.70
2022-10-10T20:49:04.426Z,23.60
2022-10-10T20:51:33.872Z,23.60
2022-10-10T20:54:04.825Z,23.60
2022-10-10T20:56:34.994Z,23.60
2022-10-10T20:59:03.191Z,23.60
2022-10-10T21:01:32.159Z,23.60
2022-10-10T21:04:01.355Z,23.60
2022-10-10T21:06:31.403Z,23.60
2022-10-10T21:09:03.453Z,23.60
2022-10-10T21:11:31.722Z,23.60
2022-10-10T21:14:01.180Z,23.50
2022-10-10T21:16:32.025Z,23.50
2022-10-10T21:19:00.534Z,23.50
2022-10-10T21:21:32.730Z,23.50
2022-10-10T21:24:03.710Z,23.50
2022-10-10T21:26:32.577Z,23.50
2022-10-10T21:29:01.662Z,23.40
2022-10-10T21:31:32.015Z,23.40
2022-10-10T21:34:02.111Z,23.40
2022-10-10T21:36:31.011Z,23.40
2022-10-10T21:38:59.603Z,23.40
2022-10-10T21:41:29.614Z,23.30
2022-10-10T21:43:59.636Z,23.30
2022-10-10T21:46:33.547Z,23.20
2022-10-10T21:49:06.450Z,23.20
2022-10-10T21:51:37.917Z,23.20
2022-10-10T21:54:06.472Z,23.20
2022-10-10T21:56:35.992Z,23.20
2022-10-10T21:59:04.490Z,23.10
2022-10-10T22:01:34.078Z,23.10
2022-10-10T22:04:03.281Z,23.10
2022-10-10T22:06:32.604Z,23.00
2022-10-10T22:09:02.168Z,23.00
2022-10-10T22:11:32.820Z,23.00
2022-10-10T22:14:03.463Z,22.90
2022-10-10T22:16:31.846Z,22.90
2022-10-10T22:19:00.178Z,22.90
2022-10-10T22:21:31.672Z,22.80
2022-10-10T22:24:02.543Z,22.80
2022-10-10T22:26:31.642Z,22.80
2022-10-10T22:29:01.297Z,22.70
2022-10-10T22:31:30.161Z,22.80
2022-10-10T22:33:58.601Z,22.70
2022-10-10T22:36:26.704Z,22.70
2022-10-10T22:38:54.745Z,22.70
2022-10-10T22:41:23.304Z,22.70
2022-10-10T22:43:51.685Z,22.70
2022-10-10T22:46:21.277Z,22.70
2022-10-10T22:48:49.418Z,22.60
2022-10-10T22:51:18.685Z,22.60
2022-10-10T22:53:48.496Z,22.60
2022-10-10T22:56:17.100Z,22.50
2022-10-10T22:58:45.954Z,22.50
2022-10-10T23:01:16.536Z,22.50
2022-10-10T23:03:46.112Z,22.50
2022-10-10T23:06:14.603Z,22.40
2022-10-10T23:08:42.693Z,22.40
2022-10-10T23:11:10.731Z,22.40
2022-10-10T23:13:38.885Z,22.30
2022-10-10T23:16:07.890Z,22.30
2022-10-10T23:18:36.285Z,22.20
2022-10-10T23:21:05.887Z,22.20
2022-10-10T23:23:33.966Z,22.20
2022-10-10T23:26:07.156Z,22.20
2022-10-10T23:28:37.337Z,22.20
2022-10-10T23:31:07.873Z,22.20
2022-10-10T23:33:37.297Z,22.10
2022-10-10T23:36:09.105Z,22.10
2022-10-10T23:38:37.675Z,22.10
2022-10-10T23:41:06.478Z,22.10
2022-10-10T23:43:34.569Z,22.00
2022-10-10T23:46:03.176Z,22.10
2022-10-10T23:48:31.731Z,22.00
2022-10-10T23:50:59.800Z,21.90
2022-10-10T23:53:29.629Z,22.00
2022-10-10T23:55:57.706Z,21.90
2022-10-10T23:58:25.830Z,21.90
